Time;durP1;ratioP1;P1;durP2;ratioP2;P2;SDS_P1;SDS_P2;PMS_P1;PMS_P2;Temp;Humidity;BMP_temperature;BMP_pressure;BME280_temperature;BME280_humidity;BME280_pressure;Samples;Min_cycle;Max_cycle;Signal;HPM_P1;HPM_P2
2023/06/12 00:01:12;;;;;;;4.55;3.33;;;23.70;58.30;;;;;;5073386;28;20071;-87
2023/06/12 00:03:40;;;;;;;4.30;3.25;;;23.60;58.40;;;;;;5074715;28;20058;-88
2023/06/12 00:06:09;;;;;;;4.35;3.42;;;23.60;58.50;;;;;;5074350;28;20477;-88
2023/06/12 00:08:35;;;;;;;4.03;3.33;;;23.50;58.60;;;;;;5073630;28;20021;-88
2023/06/12 00:11:07;;;;;;;4.80;3.25;;;23.40;58.60;;;;;;5074321;28;20048;-87
2023/06/12 00:13:33;;;;;;;3.60;3.20;;;23.40;58.70;;;;;;5073756;28;20021;-87
2023/06/12 00:16:02;;;;;;;4.05;3.40;;;23.40;58.80;;;;;;5074223;28;20024;-88
2023/06/12 00:18:28;;;;;;;4.18;3.28;;;23.40;59.00;;;;;;5072807;28;20028;-88
2023/06/12 00:20:54;;;;;;;4.35;3.35;;;23.30;58.90;;;;;;5056659;28;20033;-87
2023/06/12 00:23:19;;;;;;;5.70;3.50;;;23.30;59.00;;;;;;5039751;28;20035;-88
2023/06/12 00:25:45;;;;;;;4.30;3.30;;;23.30;59.20;;;;;;5073043;28;20020;-87
2023/06/12 00:28:11;;;;;;;3.50;3.00;;;23.20;59.20;;;;;;5073313;28;20074;-88
2023/06/12 00:30:36;;;;;;;3.55;3.25;;;23.20;59.30;;;;;;5073002;28;20039;-87
2023/06/12 00:33:02;;;;;;;3.58;3.15;;;23.20;59.50;;;;;;5072684;28;20025;-88
2023/06/12 00:35:28;;;;;;;3.60;3.08;;;23.20;59.50;;;;;;5055629;28;20140;-88
2023/06/12 00:37:56;;;;;;;3.53;3.22;;;23.20;59.50;;;;;;5073243;28;20412;-88
2023/06/12 00:40:22;;;;;;;3.40;3.08;;;23.10;59.50;;;;;;5056344;28;20124;-88
2023/06/12 00:42:50;;;;;;;4.80;3.65;;;23.10;59.70;;;;;;5056155;28;20496;-87
2023/06/12 00:45:21;;;;;;;4.75;2.92;;;23.00;59.70;;;;;;5072450;28;20035;-87
2023/06/12 00:47:48;;;;;;;;;;;23.00;59.80;;;;;;5073462;28;20024;-88
2023/06/12 00:50:14;;;;;;;3.60;3.30;;;23.00;59.90;;;;;;5074406;28;19912;-87
2023/06/12 00:52:47;;;;;;;4.07;3.67;;;22.90;60.00;;;;;;5074170;28;20021;-87
2023/06/12 00:55:14;;;;;;;4.57;3.60;;;22.90;60.00;;;;;;5074386;28;20081;-88
2023/06/12 00:57:42;;;;;;;4.35;3.40;;;22.90;60.00;;;;;;5073448;28;20041;-87
2023/06/12 01:00:11;;;;;;;4.50;3.20;;;22.80;60.10;;;;;;5073723;28;20522;-87
2023/06/12 01:02:42;;;;;;;4.53;3.40;;;22.80;60.20;;;;;;5075109;28;20021;-87
2023/06/12 01:05:13;;;;;;;3.60;3.30;;;22.80;60.20;;;;;;5078430;28;20017;-87
2023/06/12 01:08:01;;;;;;;3.83;3.30;;;22.80;60.40;;;;;;5085109;28;20028;-87
2023/06/12 01:11:04;;;;;;;3.85;3.20;;;22.70;60.40;;;;;;5094012;28;20063;-85
2023/06/12 01:13:30;;;;;;;3.65;3.20;;;22.70;60.40;;;;;;4996762;28;20034;-87
2023/06/12 01:15:56;;;;;;;3.85;3.45;;;22.60;60.50;;;;;;5080122;28;20492;-87
2023/06/12 01:18:22;;;;;;;3.38;3.08;;;22.60;60.60;;;;;;5085383;28;20017;-87
2023/06/12 01:20:50;;;;;;;4.43;3.55;;;22.60;60.70;;;;;;5078437;28;20028;-87
2023/06/12 01:23:33;;;;;;;3.97;3.50;;;22.60;60.80;;;;;;5044230;28;20474;-87
2023/06/12 01:26:01;;;;;;;3.20;2.90;;;22.50;60.80;;;;;;5074431;28;20016;-87
2023/06/12 01:29:04;;;;;;;4.80;3.30;;;22.50;60.90;;;;;;5072783;28;20028;-87
2023/06/12 01:32:00;;;;;;;4.07;3.15;;;22.50;60.90;;;;;;5073701;28;20107;-87
2023/06/12 01:34:34;;;;;;;4.53;3.20;;;22.50;61.00;;;;;;5062554;28;20058;-87
2023/06/12 01:37:29;;;;;;;5.07;3.15;;;22.50;61.10;;;;;;5072470;28;20484;-87
2023/06/12 01:39:59;;;;;;;4.20;3.10;;;22.50;61.10;;;;;;5068170;28;20477;-87
2023/06/12 01:42:30;;;;;;;4.22;3.15;;;22.40;61.20;;;;;;5072454;28;20074;-87
2023/06/12 01:44:55;;;;;;;;;;;22.40;61.30;;;;;;5073839;28;20095;-88
2023/06/12 01:47:22;;;;;;;6.00;3.70;;;22.30;61.30;;;;;;5055709;28;19951;-87
2023/06/12 01:49:48;;;;;;;3.75;3.38;;;22.30;61.50;;;;;;5072476;28;20024;-87
2023/06/12 01:52:14;;;;;;;3.47;3.17;;;22.20;61.60;;;;;;5072225;28;20021;-87
2023/06/12 01:54:40;;;;;;;5.43;3.35;;;22.20;61.60;;;;;;5072289;28;20021;-88
2023/06/12 01:57:06;;;;;;;3.55;3.10;;;22.20;61.70;;;;;;5041247;28;20038;-87
2023/06/12 01:59:34;;;;;;;4.47;3.40;;;22.10;61.80;;;;;;5075711;28;20485;-87
2023/06/12 02:02:00;;;;;;;5.28;3.45;;;22.20;61.90;;;;;;5059208;28;20095;-87
2023/06/12 02:04:28;;;;;;;3.50;3.20;;;22.10;62.00;;;;;;5075716;28;20496;-87
2023/06/12 02:06:53;;;;;;;5.07;3.60;;;22.10;62.10;;;;;;5076985;28;20063;-88
2023/06/12 02:09:19;;;;;;;4.00;3.42;;;22.10;62.20;;;;;;5075496;28;20374;-87
2023/06/12 02:11:45;;;;;;;4.85;3.20;;;22.00;62.20;;;;;;5059250;28;20063;-87
2023/06/12 02:14:10;;;;;;;3.67;3.08;;;22.00;62.20;;;;;;5058958;28;20547;-87
2023/06/12 02:16:36;;;;;;;4.03;2.95;;;22.00;62.30;;;;;;5058818;28;20401;-87
2023/06/12 02:19:02;;;;;;;3.65;3.30;;;21.90;62.50;;;;;;5075511;28;20029;-87
2023/06/12 02:21:28;;;;;;;3.58;3.28;;;21.90;62.50;;;;;;5076515;28;20021;-87
2023/06/12 02:23:54;;;;;;;4.13;3.45;;;21.90;62.50;;;;;;5075260;28;20090;-87
2023/06/12 02:26:20;;;;;;;3.90;3.50;;;21.90;62.50;;;;;;5040534;28;20028;-87
2023/06/12 02:29:05;;;;;;;3.33;3.03;;;21.80;62.50;;;;;;5075059;28;20017;-87
2023/06/12 02:31:30;;;;;;;4.68;3.75;;;21.80;62.60;;;;;;5074782;28;20488;-87
2023/06/12 02:33:56;;;;;;;4.15;3.30;;;21.80;62.70;;;;;;5074887;28;20032;-87
2023/06/12 02:36:22;;;;;;;5.50;3.80;;;21.70;62.80;;;;;;5074976;28;20053;-87
2023/06/12 02:38:48;;;;;;;4.30;3.50;;;21.70;62.90;;;;;;5075522;28;20476;-88
2023/06/12 02:41:13;;;;;;;3.70;3.28;;;21.70;63.10;;;;;;5075427;28;20048;-87
2023/06/12 02:43:40;;;;;;;3.95;3.55;;;21.70;63.20;;;;;;5075316;28;20035;-87
2023/06/12 02:46:05;;;;;;;4.45;3.55;;;21.60;63.40;;;;;;5058924;28;20476;-87
2023/06/12 02:48:31;;;;;;;4.03;3.63;;;21.60;63.50;;;;;;5074978;28;20108;-87
2023/06/12 02:50:57;;;;;;;5.22;3.40;;;21.60;63.60;;;;;;5074712;28;20427;-87
2023/06/12 02:53:25;;;;;;;3.88;3.47;;;21.60;63.70;;;;;;5075173;28;20111;-87
2023/06/12 02:55:51;;;;;;;4.00;3.60;;;21.50;64.40;;;;;;5075232;28;20036;-87
2023/06/12 02:58:17;;;;;;;3.55;3.20;;;21.50;64.00;;;;;;5077032;28;20029;-87
2023/06/12 03:00:43;;;;;;;3.92;3.20;;;21.40;64.00;;;;;;5075282;28;20020;-87
2023/06/12 03:03:09;;;;;;;4.15;3.10;;;21.40;64.00;;;;;;5081490;28;20055;-87
2023/06/12 03:05:36;;;;;;;3.90;3.50;;;21.40;64.10;;;;;;5096666;28;20024;-87
2023/06/12 03:08:05;;;;;;;4.68;3.33;;;21.30;64.30;;;;;;5066835;28;20028;-87
2023/06/12 03:10:31;;;;;;;3.60;3.28;;;21.30;64.30;;;;;;5095440;28;20027;-87
2023/06/12 03:12:57;;;;;;;3.83;3.50;;;21.30;64.30;;;;;;5098552;28;20025;-87
2023/06/12 03:15:22;;;;;;;3.50;3.20;;;21.30;64.40;;;;;;5098875;28;20008;-87
2023/06/12 03:17:48;;;;;;;4.88;3.72;;;21.30;64.40;;;;;;5081758;28;20029;-87
2023/06/12 03:20:17;;;;;;;3.95;3.50;;;21.20;64.40;;;;;;5092965;28;20024;-85
2023/06/12 03:22:43;;;;;;;5.60;3.67;;;21.20;64.30;;;;;;5059588;28;20028;-87
2023/06/12 03:25:10;;;;;;;4.22;3.40;;;21.20;64.40;;;;;;5074647;28;20021;-88
2023/06/12 03:27:36;;;;;;;4.07;3.40;;;21.20;64.50;;;;;;5074489;28;20213;-87
2023/06/12 03:30:03;;;;;;;4.18;3.50;;;21.20;64.60;;;;;;5075561;28;20032;-87
2023/06/12 03:32:29;;;;;;;5.82;3.80;;;21.20;64.70;;;;;;5074206;28;20062;-88
2023/06/12 03:34:55;;;;;;;3.60;3.25;;;21.10;64.70;;;;;;5057520;28;20381;-88
2023/06/12 03:37:21;;;;;;;3.70;3.40;;;21.10;64.70;;;;;;5074203;28;20020;-88
2023/06/12 03:39:47;;;;;;;4.22;3.38;;;21.10;64.80;;;;;;5073845;28;20099;-88
2023/06/12 03:42:13;;;;;;;4.63;3.55;;;21.10;64.80;;;;;;5057290;28;20119;-88
2023/06/12 03:44:39;;;;;;;6.40;3.60;;;21.10;64.90;;;;;;5073811;28;20029;-88
2023/06/12 03:47:05;;;;;;;4.20;3.53;;;21.10;64.90;;;;;;5073688;28;20028;-88
2023/06/12 03:49:31;;;;;;;5.68;3.53;;;21.10;65.00;;;;;;5057211;28;20115;-88
2023/06/12 03:51:56;;;;;;;5.72;3.60;;;21.10;65.00;;;;;;5073469;28;20463;-88
2023/06/12 03:54:22;;;;;;;4.13;3.67;;;21.00;64.90;;;;;;5074904;28;20068;-88
2023/06/12 03:56:48;;;;;;;4.13;3.67;;;21.00;65.00;;;;;;5073846;28;20458;-87
2023/06/12 03:59:15;;;;;;;3.95;3.55;;;21.00;65.00;;;;;;5073718;28;20068;-88
2023/06/12 04:01:42;;;;;;;7.10;3.30;;;21.00;65.10;;;;;;5073571;28;20033;-88
2023/06/12 04:04:09;;;;;;;4.97;3.40;;;21.00;65.20;;;;;;5074990;28;20418;-88
2023/06/12 04:06:40;;;;;;;6.47;3.63;;;21.00;65.30;;;;;;5073211;28;20086;-88
2023/06/12 04:09:14;;;;;;;3.65;3.35;;;21.00;65.40;;;;;;5041284;28;20029;-88
2023/06/12 04:11:40;;;;;;;5.15;3.63;;;20.90;66.10;;;;;;5073544;28;20434;-87
2023/06/12 04:14:06;;;;;;;5.93;3.63;;;20.90;65.60;;;;;;5056957;28;20067;-88
2023/06/12 04:16:33;;;;;;;4.13;3.72;;;20.90;65.70;;;;;;5074829;28;20020;-87
2023/06/12 04:19:19;;;;;;;4.78;3.60;;;20.90;65.80;;;;;;5072644;28;20024;-88
2023/06/12 04:21:45;;;;;;;4.88;3.53;;;20.90;65.90;;;;;;5072840;28;20037;-87
2023/06/12 04:24:15;;;;;;;4.95;3.72;;;20.90;65.90;;;;;;5074439;28;20028;-88
2023/06/12 04:26:46;;;;;;;5.43;3.40;;;20.90;66.00;;;;;;5072996;28;20119;-87
2023/06/12 04:29:12;;;;;;;5.97;3.55;;;20.90;66.00;;;;;;5072873;28;20021;-89
2023/06/12 04:31:40;;;;;;;6.07;3.40;;;20.90;66.10;;;;;;5056395;28;20040;-88
2023/06/12 04:34:07;;;;;;;4.68;3.45;;;20.90;66.10;;;;;;5072923;28;20028;-88
2023/06/12 04:36:37;;;;;;;4.88;3.97;;;21.00;66.10;;;;;;5071922;28;20094;-87
2023/06/12 04:39:10;;;;;;;4.10;3.15;;;20.90;66.20;;;;;;5072598;28;20024;-88
2023/06/12 04:41:37;;;;;;;4.57;3.72;;;21.00;66.40;;;;;;5056765;28;20115;-88
2023/06/12 04:44:06;;;;;;;4.53;3.70;;;21.00;66.50;;;;;;5074011;28;20032;-88
2023/06/12 04:46:35;;;;;;;5.13;3.70;;;21.00;66.40;;;;;;5056116;28;20028;-87
2023/06/12 04:49:00;;;;;;;5.30;3.85;;;21.00;66.30;;;;;;5072625;28;20024;-87
2023/06/12 04:51:26;;;;;;;4.20;3.60;;;21.00;66.40;;;;;;5072407;28;20077;-85
2023/06/12 04:53:53;;;;;;;5.20;3.47;;;21.00;66.50;;;;;;5073712;28;20103;-88
2023/06/12 04:56:21;;;;;;;4.53;3.88;;;21.00;66.50;;;;;;5056043;28;20108;-87
2023/06/12 04:58:47;;;;;;;4.82;3.90;;;21.00;66.60;;;;;;5072747;28;20032;-87
2023/06/12 05:01:14;;;;;;;5.38;3.67;;;21.00;66.60;;;;;;5056398;28;20032;-87
2023/06/12 05:03:41;;;;;;;4.35;3.25;;;21.10;66.60;;;;;;5073672;28;20029;-86
2023/06/12 05:06:09;;;;;;;4.90;3.60;;;21.10;66.60;;;;;;5058974;28;20028;-87
2023/06/12 05:08:41;;;;;;;4.00;3.58;;;21.20;66.60;;;;;;5093854;28;20080;-87
2023/06/12 05:11:07;;;;;;;5.80;3.47;;;21.20;66.60;;;;;;5097153;28;20024;-86
2023/06/12 05:13:33;;;;;;;5.78;4.03;;;21.20;66.60;;;;;;5079797;28;20012;-86
2023/06/12 05:15:58;;;;;;;3.95;3.40;;;21.20;66.70;;;;;;5097088;28;20039;-86
2023/06/12 05:18:24;;;;;;;5.50;4.10;;;21.20;66.80;;;;;;5095699;28;20055;-86
2023/06/12 05:20:51;;;;;;;5.22;3.60;;;21.20;66.80;;;;;;5059234;28;20630;-87
2023/06/12 05:23:17;;;;;;;4.13;3.42;;;21.20;66.80;;;;;;5072873;28;20671;-89
2023/06/12 05:25:42;;;;;;;5.40;3.78;;;21.30;66.90;;;;;;5056526;28;20029;-88
2023/06/12 05:28:09;;;;;;;4.53;3.75;;;21.30;66.90;;;;;;5072487;28;20035;-89
2023/06/12 05:30:35;;;;;;;3.88;3.47;;;21.30;66.80;;;;;;5073877;28;20021;-89
2023/06/12 05:33:00;;;;;;;5.20;3.70;;;21.30;66.80;;;;;;5076244;28;20028;-89
2023/06/12 05:35:26;;;;;;;5.18;3.90;;;21.40;66.80;;;;;;5075768;28;20063;-88
2023/06/12 05:37:53;;;;;;;5.00;3.95;;;21.40;66.90;;;;;;5076205;28;20020;-89
2023/06/12 05:40:19;;;;;;;7.80;4.05;;;21.40;66.90;;;;;;5075957;28;20047;-88
2023/06/12 05:42:44;;;;;;;7.13;3.83;;;21.40;67.00;;;;;;5075612;28;20032;-89
2023/06/12 05:45:10;;;;;;;4.43;3.65;;;21.40;67.10;;;;;;5042497;28;20050;-89
2023/06/12 05:47:36;;;;;;;6.28;3.80;;;21.50;67.30;;;;;;5077017;28;20025;-88
2023/06/12 05:50:02;;;;;;;8.00;4.50;;;21.50;67.60;;;;;;5075856;28;20027;-87
2023/06/12 05:52:27;;;;;;;6.20;3.90;;;21.50;67.70;;;;;;5076987;28;20486;-87
2023/06/12 05:54:56;;;;;;;4.50;3.95;;;21.60;67.70;;;;;;5076143;28;20035;-90
2023/06/12 05:57:24;;;;;;;6.57;3.80;;;21.60;67.70;;;;;;5059425;28;20036;-90
2023/06/12 05:59:50;;;;;;;5.30;3.78;;;21.60;67.70;;;;;;5059573;28;20377;-90
2023/06/12 06:02:22;;;;;;;4.10;3.70;;;21.70;67.70;;;;;;5076019;28;20048;-89
2023/06/12 06:04:53;;;;;;;4.80;3.70;;;21.70;67.50;;;;;;5075874;28;20055;-90
2023/06/12 06:07:19;;;;;;;5.78;3.70;;;21.70;67.10;;;;;;5076121;28;20024;-90
2023/06/12 06:09:45;;;;;;;4.03;3.70;;;21.80;67.00;;;;;;5059291;28;20408;-87
2023/06/12 06:12:13;;;;;;;6.20;3.78;;;21.80;67.00;;;;;;5074954;28;20082;-88
2023/06/12 06:14:39;;;;;;;5.28;3.63;;;21.80;67.00;;;;;;5075587;28;20029;-87
2023/06/12 06:17:05;;;;;;;7.03;3.58;;;21.90;66.80;;;;;;5075293;28;20476;-88
2023/06/12 06:19:31;;;;;;;6.10;3.95;;;21.90;66.70;;;;;;5075544;28;20027;-86
2023/06/12 06:21:58;;;;;;;5.18;3.80;;;21.90;66.70;;;;;;5058352;28;20036;-87
2023/06/12 06:24:23;;;;;;;5.63;3.80;;;22.00;66.60;;;;;;5075305;28;20038;-87
2023/06/12 06:26:49;;;;;;;6.70;3.70;;;22.00;66.40;;;;;;5042029;28;20032;-87
2023/06/12 06:29:15;;;;;;;5.72;4.38;;;22.10;66.50;;;;;;5058451;28;20029;-87
2023/06/12 06:31:41;;;;;;;4.10;3.70;;;22.10;66.40;;;;;;5075050;28;20029;-87
2023/06/12 06:34:07;;;;;;;7.38;4.32;;;22.20;66.30;;;;;;5076172;28;20064;-87
2023/06/12 06:36:33;;;;;;;4.78;3.83;;;22.20;66.00;;;;;;5074604;28;20495;-87
2023/06/12 06:38:58;;;;;;;5.25;3.70;;;22.20;65.90;;;;;;5074544;28;20017;-87
2023/06/12 06:41:24;;;;;;;4.50;3.83;;;22.30;65.90;;;;;;5057497;28;20044;-87
2023/06/12 06:43:50;;;;;;;6.80;4.35;;;22.30;65.80;;;;;;5074601;28;20068;-87
2023/06/12 06:46:15;;;;;;;5.38;4.60;;;22.30;65.70;;;;;;5058249;28;20408;-87
2023/06/12 06:48:41;;;;;;;5.32;4.05;;;22.40;65.40;;;;;;5075889;28;20534;-87
2023/06/12 06:51:07;;;;;;;4.15;3.60;;;22.40;65.20;;;;;;5041434;28;20024;-87
2023/06/12 06:53:33;;;;;;;5.35;3.58;;;22.50;65.40;;;;;;5075112;28;20025;-89
2023/06/12 06:55:59;;;;;;;4.85;3.80;;;22.50;65.40;;;;;;5059299;28;20471;-88
2023/06/12 06:58:25;;;;;;;4.60;4.05;;;22.60;65.30;;;;;;5078026;28;20465;-87
2023/06/12 07:00:51;;;;;;;5.28;3.97;;;22.70;65.30;;;;;;5084890;28;20032;-87
2023/06/12 07:03:16;;;;;;;4.85;4.10;;;22.70;65.20;;;;;;5091291;28;20048;-87
2023/06/12 07:05:42;;;;;;;4.57;3.75;;;22.80;65.20;;;;;;5062706;28;20024;-82
2023/06/12 07:08:08;;;;;;;5.88;4.22;;;22.90;65.20;;;;;;5095405;28;20025;-86
2023/06/12 07:10:34;;;;;;;3.78;3.47;;;22.90;65.10;;;;;;5096969;28;20032;-88
2023/06/12 07:12:59;;;;;;;4.90;3.55;;;23.00;65.00;;;;;;5096607;28;20036;-87
2023/06/12 07:15:25;;;;;;;4.28;3.88;;;23.10;65.10;;;;;;5096973;28;20087;-85
2023/06/12 07:17:51;;;;;;;4.72;4.10;;;23.20;65.30;;;;;;5090531;28;20017;-86
2023/06/12 07:20:16;;;;;;;4.13;3.38;;;23.30;65.40;;;;;;5077060;28;20028;-88
2023/06/12 07:22:42;;;;;;;4.43;3.95;;;23.40;65.50;;;;;;5075177;28;20127;-88
2023/06/12 07:25:08;;;;;;;4.85;4.15;;;23.40;65.30;;;;;;5042164;28;20039;-88
2023/06/12 07:27:34;;;;;;;6.07;4.10;;;23.50;65.20;;;;;;5074594;28;20016;-88
2023/06/12 07:30:00;;;;;;;4.25;3.80;;;23.60;65.20;;;;;;5074644;28;20478;-88
2023/06/12 07:32:25;;;;;;;4.38;3.78;;;23.60;65.00;;;;;;5074230;28;20032;-88
2023/06/12 07:34:51;;;;;;;4.38;3.97;;;23.70;65.10;;;;;;5057471;28;20033;-86
2023/06/12 07:37:20;;;;;;;5.13;4.57;;;23.80;65.30;;;;;;5057648;28;20111;-87
2023/06/12 07:39:47;;;;;;;7.35;4.38;;;23.80;65.30;;;;;;5075664;28;20023;-88
2023/06/12 07:42:13;;;;;;;5.10;4.45;;;23.90;65.10;;;;;;5073763;28;20032;-88
2023/06/12 07:44:40;;;;;;;5.28;4.35;;;24.00;65.00;;;;;;5057392;28;20078;-88
2023/06/12 07:47:09;;;;;;;6.07;4.07;;;24.00;65.00;;;;;;5073868;28;20029;-87
2023/06/12 07:49:44;;;;;;;4.85;4.28;;;24.10;65.20;;;;;;5073999;28;20020;-88
2023/06/12 07:52:12;;;;;;;5.45;4.18;;;24.10;65.40;;;;;;5073643;28;20064;-88
2023/06/12 07:54:37;;;;;;;4.88;3.97;;;24.20;65.50;;;;;;5056843;28;20538;-89
2023/06/12 07:57:06;;;;;;;4.00;3.60;;;24.30;65.50;;;;;;5073639;28;20016;-88
2023/06/12 07:59:32;;;;;;;4.88;4.00;;;24.30;65.10;;;;;;5073918;28;20458;-88
2023/06/12 08:01:58;;;;;;;4.05;3.65;;;24.40;64.70;;;;;;5073236;28;20025;-89
2023/06/12 08:04:24;;;;;;;5.40;3.60;;;24.40;64.60;;;;;;5074298;28;20024;-89
2023/06/12 08:06:50;;;;;;;4.32;3.78;;;24.50;64.70;;;;;;5057001;28;20385;-89
2023/06/12 08:09:16;;;;;;;5.20;4.10;;;24.60;64.50;;;;;;5040491;28;20036;-88
2023/06/12 08:11:42;;;;;;;4.25;3.83;;;24.70;64.40;;;;;;5056618;28;20032;-88
2023/06/12 08:14:08;;;;;;;6.90;3.95;;;24.80;64.10;;;;;;5073444;28;20024;-89
2023/06/12 08:16:33;;;;;;;4.50;4.10;;;24.90;63.80;;;;;;5073576;28;20013;-88
2023/06/12 08:18:59;;;;;;;4.65;4.20;;;25.00;63.60;;;;;;5074596;28;20028;-89
2023/06/12 08:21:25;;;;;;;5.22;4.03;;;25.00;63.40;;;;;;5073167;28;20028;-89
2023/06/12 08:23:51;;;;;;;5.55;4.40;;;25.10;62.90;;;;;;5074652;28;20017;-89
2023/06/12 08:26:17;;;;;;;4.47;4.07;;;25.10;62.90;;;;;;5057021;28;20035;-89
2023/06/12 08:28:47;;;;;;;4.60;4.20;;;25.20;62.80;;;;;;5056954;28;20127;-88
2023/06/12 08:31:13;;;;;;;4.22;3.83;;;25.30;62.80;;;;;;5073280;28;20033;-88
2023/06/12 08:33:40;;;;;;;5.68;4.22;;;25.40;62.50;;;;;;5056734;28;20045;-89
2023/06/12 08:36:06;;;;;;;5.07;4.20;;;25.40;62.40;;;;;;5073139;28;20049;-88
2023/06/12 08:38:34;;;;;;;6.05;4.70;;;25.50;62.00;;;;;;5073341;28;20036;-88
2023/06/12 08:41:02;;;;;;;6.00;4.25;;;25.50;61.70;;;;;;5073090;28;20047;-88
2023/06/12 08:43:37;;;;;;;4.80;3.90;;;25.50;61.60;;;;;;5073299;28;20020;-89
2023/06/12 08:46:07;;;;;;;4.70;4.00;;;25.60;61.70;;;;;;5073011;28;20025;-89
2023/06/12 08:48:33;;;;;;;5.50;4.23;;;25.70;61.40;;;;;;5073280;28;20016;-89
2023/06/12 08:51:02;;;;;;;5.28;4.20;;;25.70;60.60;;;;;;5073322;28;20029;-89
2023/06/12 08:53:28;;;;;;;4.22;3.80;;;25.80;60.60;;;;;;5073534;28;20059;-89
2023/06/12 08:55:55;;;;;;;4.95;4.45;;;25.90;60.60;;;;;;5056782;28;20067;-89
2023/06/12 08:58:21;;;;;;;4.78;4.03;;;25.90;60.50;;;;;;5073197;28;20025;-89
2023/06/12 09:00:47;;;;;;;5.40;4.53;;;26.00;60.50;;;;;;5073402;28;20036;-89
2023/06/12 09:03:14;;;;;;;4.75;3.92;;;26.10;60.30;;;;;;5056417;28;20111;-88
2023/06/12 09:05:40;;;;;;;5.10;4.60;;;26.10;60.00;;;;;;5076722;28;20101;-88
2023/06/12 09:08:06;;;;;;;5.03;4.13;;;26.20;59.80;;;;;;5061819;28;20439;-89
2023/06/12 09:10:33;;;;;;;5.35;4.57;;;26.20;59.50;;;;;;5090219;28;20008;-87
2023/06/12 09:13:01;;;;;;;4.63;4.20;;;26.30;59.40;;;;;;5101568;28;20047;-88
2023/06/12 09:15:27;;;;;;;4.45;3.83;;;26.30;59.50;;;;;;5101401;28;20056;-88
2023/06/12 09:17:55;;;;;;;4.60;4.20;;;26.40;59.70;;;;;;5101310;28;20092;-87
2023/06/12 09:20:33;;;;;;;4.57;4.15;;;26.50;59.40;;;;;;5083845;28;20076;-89
2023/06/12 09:23:01;;;;;;;4.38;3.95;;;26.60;60.10;;;;;;5099178;28;20020;-88
2023/06/12 09:25:34;;;;;;;5.95;4.93;;;26.60;59.60;;;;;;5089832;28;20024;-89
2023/06/12 09:28:03;;;;;;;5.88;4.75;;;26.60;58.70;;;;;;5077369;28;20028;-88
2023/06/12 09:30:31;;;;;;;5.43;4.72;;;26.70;58.20;;;;;;5078073;28;20070;-88
2023/06/12 09:32:58;;;;;;;4.90;4.40;;;26.70;57.80;;;;;;5076718;28;20028;-88
2023/06/12 09:35:24;;;;;;;5.18;3.92;;;26.80;57.90;;;;;;5076553;28;20049;-88
2023/06/12 09:37:50;;;;;;;4.90;4.40;;;26.80;57.80;;;;;;5043703;28;20031;-88
2023/06/12 09:40:16;;;;;;;4.57;4.13;;;26.80;57.60;;;;;;5059866;28;20025;-88
2023/06/12 09:42:50;;;;;;;4.80;4.30;;;26.90;57.60;;;;;;5077715;28;20552;-89
2023/06/12 09:45:23;;;;;;;5.13;4.40;;;27.00;57.60;;;;;;5061301;28;20029;-89
2023/06/12 09:47:50;;;;;;;4.47;4.07;;;27.00;57.60;;;;;;5077593;28;20440;-88
2023/06/12 09:50:23;;;;;;;5.15;4.20;;;27.10;57.30;;;;;;5076168;28;20025;-86
2023/06/12 09:52:49;;;;;;;4.65;4.07;;;27.20;57.20;;;;;;5076378;28;20021;-89
2023/06/12 09:55:18;;;;;;;4.80;4.20;;;27.30;56.30;;;;;;5076373;28;20032;-87
2023/06/12 09:57:52;;;;;;;5.83;4.50;;;27.30;55.70;;;;;;5058816;28;20218;-89
2023/06/12 10:00:23;;;;;;;5.43;4.25;;;27.30;54.20;;;;;;5075907;28;20050;-88
2023/06/12 10:03:00;;;;;;;4.85;4.28;;;27.30;53.50;;;;;;5075804;28;20048;-89
2023/06/12 10:05:42;;;;;;;4.82;4.07;;;27.40;53.60;;;;;;5075954;28;20032;-90
2023/06/12 10:08:11;;;;;;;4.88;4.32;;;27.40;54.10;;;;;;5077051;28;20020;-85
2023/06/12 10:10:39;;;;;;;5.60;3.97;;;27.50;54.90;;;;;;5059400;28;20029;-90
2023/06/12 10:13:12;;;;;;;7.80;4.35;;;27.50;54.10;;;;;;5076142;28;20017;-90
2023/06/12 10:15:45;;;;;;;4.78;3.90;;;27.60;53.50;;;;;;5076305;28;20029;-88
2023/06/12 10:18:12;;;;;;;4.85;4.00;;;27.70;53.30;;;;;;5074938;28;20033;-88
2023/06/12 10:20:41;;;;;;;4.85;3.78;;;27.70;52.80;;;;;;5042537;28;20029;-88
2023/06/12 10:23:08;;;;;;;4.72;4.00;;;27.70;52.10;;;;;;5076387;28;20028;-89
2023/06/12 10:25:36;;;;;;;5.47;4.05;;;27.70;51.90;;;;;;5075946;28;20023;-90
2023/06/12 10:28:06;;;;;;;4.95;4.30;;;27.70;52.50;;;;;;5076127;28;20461;-88
2023/06/12 10:30:35;;;;;;;4.57;3.87;;;27.80;52.00;;;;;;5059630;28;20021;-89
2023/06/12 10:33:13;;;;;;;4.70;4.30;;;27.80;52.00;;;;;;5075914;28;20020;-88
2023/06/12 10:35:48;;;;;;;4.57;4.03;;;27.90;52.00;;;;;;5076833;28;20064;-91
2023/06/12 10:38:14;;;;;;;5.57;3.90;;;27.90;52.20;;;;;;5060413;28;20017;-91
2023/06/12 10:40:50;;;;;;;4.20;3.78;;;28.00;52.20;;;;;;5076058;28;20016;-89
2023/06/12 10:43:29;;;;;;;4.55;3.60;;;28.00;52.30;;;;;;5076248;28;20046;-89
2023/06/12 10:45:58;;;;;;;5.63;4.00;;;28.10;52.90;;;;;;5078054;28;20133;-89
2023/06/12 10:48:44;;;;;;;4.25;3.50;;;28.10;52.70;;;;;;5077048;28;20028;-89
2023/06/12 10:51:40;;;;;;;4.28;3.88;;;28.20;52.90;;;;;;5076641;28;20082;-92
2023/06/12 10:54:14;;;;;;;4.53;4.13;;;28.20;52.70;;;;;;5077596;28;20052;-90
2023/06/12 10:57:00;;;;;;;4.22;3.85;;;28.20;52.70;;;;;;5077212;28;20465;-90
2023/06/12 10:59:35;;;;;;;4.88;3.83;;;28.30;52.90;;;;;;5078496;28;20096;-90
2023/06/12 11:02:02;;;;;;;4.32;3.92;;;28.40;52.90;;;;;;5076793;28;20032;-91
2023/06/12 11:04:44;;;;;;;4.30;3.90;;;28.40;53.00;;;;;;5076571;28;20036;-90
2023/06/12 11:07:11;;;;;;;4.68;4.07;;;28.40;52.80;;;;;;5076726;28;20119;-88
2023/06/12 11:09:40;;;;;;;4.97;4.20;;;28.40;52.80;;;;;;5076786;28;20056;-87
2023/06/12 11:12:10;;;;;;;7.07;4.25;;;28.40;52.90;;;;;;5045998;28;20032;-87
2023/06/12 11:14:38;;;;;;;6.35;4.32;;;28.50;53.10;;;;;;5081220;28;20024;-88
2023/06/12 11:17:04;;;;;;;4.88;4.38;;;28.50;52.90;;;;;;5082303;28;20115;-87
2023/06/12 11:19:32;;;;;;;4.75;4.20;;;28.60;52.90;;;;;;5079167;28;20028;-87
2023/06/12 11:22:05;;;;;;;5.70;4.13;;;28.60;52.90;;;;;;5098383;28;20039;-88
2023/06/12 11:24:31;;;;;;;5.28;4.78;;;28.60;52.80;;;;;;5080600;28;20042;-88
2023/06/12 11:27:17;;;;;;;4.78;4.18;;;28.60;52.90;;;;;;5096878;28;20048;-87
2023/06/12 11:29:45;;;;;;;4.80;4.00;;;28.70;53.20;;;;;;5088223;28;20127;-86
2023/06/12 11:32:11;;;;;;;5.32;4.13;;;28.70;53.30;;;;;;5083432;28;20017;-87
2023/06/12 11:34:41;;;;;;;4.30;3.90;;;28.70;53.30;;;;;;5074532;28;20024;-87
2023/06/12 11:37:18;;;;;;;4.30;3.90;;;28.80;53.70;;;;;;5041628;28;20048;-87
2023/06/12 11:39:44;;;;;;;3.95;3.55;;;28.80;53.50;;;;;;5074442;28;20477;-88
2023/06/12 11:42:13;;;;;;;4.60;4.05;;;28.90;53.70;;;;;;5057288;28;20067;-87
2023/06/12 11:44:41;;;;;;;4.57;4.10;;;28.90;53.70;;;;;;5073802;28;20289;-88
2023/06/12 11:47:07;;;;;;;4.85;4.35;;;28.90;53.70;;;;;;5073749;28;20036;-88
2023/06/12 11:49:39;;;;;;;5.55;4.35;;;29.00;53.80;;;;;;5073278;28;20060;-87
2023/06/12 11:52:06;;;;;;;5.00;4.10;;;29.00;54.00;;;;;;5073311;28;20033;-87
2023/06/12 11:55:04;;;;;;;4.53;4.13;;;29.00;54.10;;;;;;5073354;28;20047;-87
2023/06/12 11:57:30;;;;;;;4.80;4.30;;;29.00;53.80;;;;;;5072966;28;20020;-88
2023/06/12 11:59:57;;;;;;;5.07;3.92;;;29.10;53.90;;;;;;5073448;28;20390;-88
2023/06/12 12:02:38;;;;;;;4.32;3.92;;;29.10;53.90;;;;;;5073382;28;20025;-86
2023/06/12 12:05:06;;;;;;;6.32;4.10;;;29.10;54.00;;;;;;5074698;28;20021;-87
2023/06/12 12:07:32;;;;;;;4.53;3.83;;;29.20;54.10;;;;;;5056848;28;20033;-87
2023/06/12 12:10:07;;;;;;;4.15;3.75;;;29.20;53.90;;;;;;5056422;28;20393;-87
2023/06/12 12:12:43;;;;;;;3.75;3.45;;;29.30;54.20;;;;;;5074390;28;20160;-88
2023/06/12 12:15:14;;;;;;;3.53;3.22;;;29.30;54.00;;;;;;5056250;28;20032;-88
2023/06/12 12:17:40;;;;;;;4.07;3.45;;;29.40;54.10;;;;;;5074521;28;20025;-87
2023/06/12 12:20:12;;;;;;;3.97;3.63;;;29.50;54.30;;;;;;5073243;28;20111;-88
2023/06/12 12:22:39;;;;;;;4.05;3.63;;;29.50;53.80;;;;;;5073931;28;20501;-87
2023/06/12 12:25:06;;;;;;;4.07;3.67;;;29.50;53.60;;;;;;5074061;28;20024;-88
2023/06/12 12:27:33;;;;;;;4.93;3.88;;;29.60;53.70;;;;;;5073035;28;20066;-88
2023/06/12 12:29:59;;;;;;;5.30;3.85;;;29.60;53.80;;;;;;5072854;28;20029;-86
2023/06/12 12:32:25;;;;;;;4.75;3.63;;;29.60;53.70;;;;;;5056447;28;20078;-87
2023/06/12 12:34:51;;;;;;;6.40;3.65;;;29.70;53.70;;;;;;5055967;28;20020;-87
2023/06/12 12:37:16;;;;;;;4.80;3.67;;;29.70;53.70;;;;;;5073324;28;20058;-87
2023/06/12 12:39:42;;;;;;;6.00;3.92;;;29.80;53.90;;;;;;5072094;28;20021;-87
2023/06/12 12:42:08;;;;;;;4.45;4.05;;;29.80;53.90;;;;;;5073539;28;20028;-86
2023/06/12 12:44:34;;;;;;;3.92;3.47;;;29.80;53.80;;;;;;5073948;28;20035;-86
2023/06/12 12:46:59;;;;;;;4.05;3.65;;;29.90;53.90;;;;;;5056969;28;20072;-87
2023/06/12 12:49:25;;;;;;;6.05;3.95;;;29.90;53.40;;;;;;5040422;28;20097;-86
2023/06/12 12:51:50;;;;;;;3.72;3.42;;;30.00;53.50;;;;;;5075454;28;20121;-86
2023/06/12 12:54:16;;;;;;;4.00;3.60;;;30.00;53.80;;;;;;5075671;28;20029;-87